Terminal Aerodrome Forecast
Issued by NWS Austin/San Antonio, TX

Home | Current Version | Previous Version | Text Only | Print | Product List | Glossary On
Versions: 1 2 3 4 5 6 7 8 9 10 11 12 13 14 15 16
000
FTUS44 KEWX 291700 RRA
TAFAUS
TAF
KAUS 291742Z 2918/3024 VRB05KT P6SM FEW020 SCT250
     FM292100 35005KT P6SM SCT100
     FM300200 01015KT P6SM BKN100
     FM301600 02012KT P6SM SCT030 BKN120
     FM302000 03008KT P6SM SCT040 SCT080 BKN120=

USA.gov is the U.S. government's official web portal to all federal, state and local government web resources and services.